sensor_id;sensor_type;location;lat;lon;timestamp;pressure;altitude;pressure_sealevel;temperature;humidity
7662;BME280;30314;48.184;11.510;2023-09-19T00:00:17;95622.78;;;16.04;100.00
7662;BME280;30314;48.184;11.510;2023-09-19T00:02:55;95628.69;;;16.10;100.00
7662;BME280;30314;48.184;11.510;2023-09-19T00:05:26;95629.75;;;16.09;100.00
7662;BME280;30314;48.184;11.510;2023-09-19T00:07:56;95625.22;;;16.09;100.00
7662;BME280;30314;48.184;11.510;2023-09-19T00:10:26;95623.47;;;16.13;100.00
7662;BME280;30314;48.184;11.510;2023-09-19T00:12:53;95629.88;;;16.12;100.00
7662;BME280;30314;48.184;11.510;2023-09-19T00:15:26;95630.34;;;16.14;100.00
7662;BME280;30314;48.184;11.510;2023-09-19T00:17:55;95625.66;;;16.11;100.00
7662;BME280;30314;48.184;11.510;2023-09-19T00:20:23;95628.03;;;16.13;100.00
7662;BME280;30314;48.184;11.510;2023-09-19T00:22:50;95631.78;;;16.12;100.00
7662;BME280;30314;48.184;11.510;2023-09-19T00:25:20;95631.00;;;16.11;100.00
7662;BME280;30314;48.184;11.510;2023-09-19T00:27:47;95632.56;;;16.12;100.00
7662;BME280;30314;48.184;11.510;2023-09-19T00:30:16;95628.69;;;16.10;100.00
7662;BME280;30314;48.184;11.510;2023-09-19T00:32:48;95631.97;;;16.06;100.00
7662;BME280;30314;48.184;11.510;2023-09-19T00:35:16;95638.22;;;16.11;100.00
7662;BME280;30314;48.184;11.510;2023-09-19T00:37:43;95637.75;;;16.09;100.00
7662;BME280;30314;48.184;11.510;2023-09-19T00:40:10;95644.66;;;16.10;100.00
7662;BME280;30314;48.184;11.510;2023-09-19T00:42:44;95646.09;;;16.07;100.00
7662;BME280;30314;48.184;11.510;2023-09-19T00:45:13;95639.66;;;16.08;100.00
7662;BME280;30314;48.184;11.510;2023-09-19T00:47:42;95638.53;;;16.09;100.00
7662;BME280;30314;48.184;11.510;2023-09-19T00:50:11;95645.28;;;16.06;100.00
7662;BME280;30314;48.184;11.510;2023-09-19T00:52:42;95658.16;;;16.04;100.00
7662;BME280;30314;48.184;11.510;2023-09-19T00:55:10;95663.47;;;16.04;100.00
7662;BME280;30314;48.184;11.510;2023-09-19T00:57:40;95657.06;;;16.05;100.00
7662;BME280;30314;48.184;11.510;2023-09-19T01:00:08;95660.81;;;16.04;100.00
7662;BME280;30314;48.184;11.510;2023-09-19T01:02:39;95672.59;;;16.03;100.00
7662;BME280;30314;48.184;11.510;2023-09-19T01:05:07;95667.56;;;16.02;100.00
7662;BME280;30314;48.184;11.510;2023-09-19T01:07:34;95667.25;;;16.03;100.00
7662;BME280;30314;48.184;11.510;2023-09-19T01:10:03;95669.25;;;16.06;100.00
7662;BME280;30314;48.184;11.510;2023-09-19T01:15:32;95675.97;;;16.13;100.00
7662;BME280;30314;48.184;11.510;2023-09-19T01:20:53;95683.03;;;16.09;100.00
7662;BME280;30314;48.184;11.510;2023-09-19T01:29:30;95697.72;;;16.15;100.00
7662;BME280;30314;48.184;11.510;2023-09-19T01:32:03;95694.28;;;16.14;100.00
7662;BME280;30314;48.184;11.510;2023-09-19T01:37:16;95697.41;;;16.16;100.00
7662;BME280;30314;48.184;11.510;2023-09-19T01:40:01;95695.06;;;16.15;100.00
7662;BME280;30314;48.184;11.510;2023-09-19T01:42:58;95700.53;;;16.18;100.00
7662;BME280;30314;48.184;11.510;2023-09-19T01:45:37;95695.81;;;16.15;100.00
7662;BME280;30314;48.184;11.510;2023-09-19T01:48:25;95697.28;;;16.13;100.00
7662;BME280;30314;48.184;11.510;2023-09-19T01:51:02;95702.91;;;16.11;100.00
7662;BME280;30314;48.184;11.510;2023-09-19T01:53:36;95713.91;;;16.10;100.00
7662;BME280;30314;48.184;11.510;2023-09-19T01:56:08;95704.81;;;16.11;100.00
7662;BME280;30314;48.184;11.510;2023-09-19T01:58:46;95700.13;;;16.08;100.00
7662;BME280;30314;48.184;11.510;2023-09-19T02:01:19;95705.44;;;16.08;100.00
7662;BME280;30314;48.184;11.510;2023-09-19T02:03:48;95694.94;;;16.11;100.00
7662;BME280;30314;48.184;11.510;2023-09-19T02:06:16;95699.00;;;16.09;100.00
7662;BME280;30314;48.184;11.510;2023-09-19T02:08:44;95706.25;;;16.08;100.00
7662;BME280;30314;48.184;11.510;2023-09-19T02:11:12;95706.56;;;16.06;100.00
7662;BME280;30314;48.184;11.510;2023-09-19T02:13:39;95694.78;;;16.08;100.00
7662;BME280;30314;48.184;11.510;2023-09-19T02:16:09;95704.16;;;16.14;100.00
7662;BME280;30314;48.184;11.510;2023-09-19T02:18:38;95693.81;;;16.12;100.00
7662;BME280;30314;48.184;11.510;2023-09-19T02:21:05;95703.56;;;16.08;100.00
7662;BME280;30314;48.184;11.510;2023-09-19T02:23:39;95707.00;;;16.09;100.00
7662;BME280;30314;48.184;11.510;2023-09-19T02:26:08;95705.00;;;16.05;100.00
7662;BME280;30314;48.184;11.510;2023-09-19T02:28:34;95701.88;;;16.03;100.00
7662;BME280;30314;48.184;11.510;2023-09-19T02:31:02;95696.75;;;15.98;100.00
7662;BME280;30314;48.184;11.510;2023-09-19T02:33:29;95682.72;;;15.89;100.00
7662;BME280;30314;48.184;11.510;2023-09-19T02:35:59;95684.13;;;15.86;100.00
7662;BME280;30314;48.184;11.510;2023-09-19T02:38:27;95698.97;;;15.96;100.00
7662;BME280;30314;48.184;11.510;2023-09-19T02:40:53;95683.22;;;15.82;100.00
7662;BME280;30314;48.184;11.510;2023-09-19T02:43:22;95706.63;;;15.98;100.00
7662;BME280;30314;48.184;11.510;2023-09-19T02:45:49;95688.81;;;15.89;100.00
7662;BME280;30314;48.184;11.510;2023-09-19T02:48:16;95673.53;;;15.77;100.00
7662;BME280;30314;48.184;11.510;2023-09-19T02:50:46;95704.41;;;16.00;100.00
7662;BME280;30314;48.184;11.510;2023-09-19T02:53:15;95705.84;;;15.97;100.00
7662;BME280;30314;48.184;11.510;2023-09-19T02:55:42;95697.91;;;15.88;100.00
7662;BME280;30314;48.184;11.510;2023-09-19T02:58:09;95708.69;;;15.92;100.00
7662;BME280;30314;48.184;11.510;2023-09-19T03:00:38;95711.81;;;15.94;100.00
7662;BME280;30314;48.184;11.510;2023-09-19T03:03:05;95712.00;;;15.89;100.00
7662;BME280;30314;48.184;11.510;2023-09-19T03:05:35;95682.03;;;15.71;100.00
7662;BME280;30314;48.184;11.510;2023-09-19T03:08:01;95671.00;;;15.60;100.00
7662;BME280;30314;48.184;11.510;2023-09-19T03:10:29;95706.88;;;15.84;100.00
7662;BME280;30314;48.184;11.510;2023-09-19T03:12:58;95699.06;;;15.78;100.00
7662;BME280;30314;48.184;11.510;2023-09-19T03:15:27;95712.19;;;15.84;100.00
7662;BME280;30314;48.184;11.510;2023-09-19T03:17:54;95672.41;;;15.57;100.00
7662;BME280;30314;48.184;11.510;2023-09-19T03:20:23;95716.44;;;15.76;100.00
7662;BME280;30314;48.184;11.510;2023-09-19T03:22:50;95701.00;;;15.69;100.00
7662;BME280;30314;48.184;11.510;2023-09-19T03:25:17;95715.03;;;15.78;100.00
7662;BME280;30314;48.184;11.510;2023-09-19T03:27:47;95703.34;;;15.71;100.00
7662;BME280;30314;48.184;11.510;2023-09-19T03:30:14;95705.81;;;15.76;100.00
7662;BME280;30314;48.184;11.510;2023-09-19T03:32:46;95719.25;;;15.80;100.00
7662;BME280;30314;48.184;11.510;2023-09-19T03:35:13;95697.81;;;15.76;100.00
7662;BME280;30314;48.184;11.510;2023-09-19T03:37:41;95722.00;;;15.92;100.00
7662;BME280;30314;48.184;11.510;2023-09-19T03:40:09;95720.28;;;15.96;100.00
7662;BME280;30314;48.184;11.510;2023-09-19T03:42:41;95721.84;;;15.97;100.00
7662;BME280;30314;48.184;11.510;2023-09-19T03:45:12;95699.78;;;15.88;100.00
7662;BME280;30314;48.184;11.510;2023-09-19T03:47:44;95728.72;;;15.98;100.00
7662;BME280;30314;48.184;11.510;2023-09-19T03:50:15;95726.22;;;15.93;100.00
7662;BME280;30314;48.184;11.510;2023-09-19T03:52:44;95723.91;;;15.91;100.00
7662;BME280;30314;48.184;11.510;2023-09-19T03:55:11;95737.03;;;15.97;100.00
7662;BME280;30314;48.184;11.510;2023-09-19T03:57:39;95704.38;;;15.78;100.00
7662;BME280;30314;48.184;11.510;2023-09-19T04:00:07;95727.78;;;15.94;100.00
7662;BME280;30314;48.184;11.510;2023-09-19T04:02:39;95716.22;;;15.90;100.00
7662;BME280;30314;48.184;11.510;2023-09-19T04:05:07;95715.78;;;15.88;100.00
7662;BME280;30314;48.184;11.510;2023-09-19T04:07:34;95726.44;;;15.88;100.00
7662;BME280;30314;48.184;11.510;2023-09-19T04:10:01;95717.19;;;15.85;100.00
7662;BME280;30314;48.184;11.510;2023-09-19T04:12:29;95727.34;;;15.92;100.00
7662;BME280;30314;48.184;11.510;2023-09-19T04:14:56;95724.53;;;15.88;100.00
7662;BME280;30314;48.184;11.510;2023-09-19T04:17:22;95738.06;;;16.04;100.00
7662;BME280;30314;48.184;11.510;2023-09-19T04:19:50;95730.13;;;15.96;100.00
7662;BME280;30314;48.184;11.510;2023-09-19T04:22:16;95718.00;;;16.07;100.00
7662;BME280;30314;48.184;11.510;2023-09-19T04:24:43;95733.63;;;16.09;100.00
7662;BME280;30314;48.184;11.510;2023-09-19T04:27:10;95734.94;;;16.02;100.00
7662;BME280;30314;48.184;11.510;2023-09-19T04:29:41;95746.19;;;16.08;100.00
7662;BME280;30314;48.184;11.510;2023-09-19T04:32:10;95737.28;;;16.04;100.00
7662;BME280;30314;48.184;11.510;2023-09-19T04:34:39;95748.06;;;16.08;100.00
7662;BME280;30314;48.184;11.510;2023-09-19T04:37:06;95736.13;;;15.92;100.00
7662;BME280;30314;48.184;11.510;2023-09-19T04:39:32;95748.72;;;16.04;100.00
7662;BME280;30314;48.184;11.510;2023-09-19T04:42:00;95760.56;;;16.16;100.00
7662;BME280;30314;48.184;11.510;2023-09-19T04:44:26;95753.38;;;16.08;100.00
7662;BME280;30314;48.184;11.510;2023-09-19T04:46:54;95760.88;;;16.14;100.00
7662;BME280;30314;48.184;11.510;2023-09-19T04:49:21;95761.53;;;16.11;100.00
7662;BME280;30314;48.184;11.510;2023-09-19T04:51:47;95763.22;;;16.16;100.00
7662;BME280;30314;48.184;11.510;2023-09-19T04:54:14;95769.34;;;16.16;100.00
7662;BME280;30314;48.184;11.510;2023-09-19T04:56:41;95770.69;;;16.01;100.00
7662;BME280;30314;48.184;11.510;2023-09-19T04:59:07;95745.06;;;15.88;100.00
7662;BME280;30314;48.184;11.510;2023-09-19T05:01:37;95783.19;;;16.10;100.00
7662;BME280;30314;48.184;11.510;2023-09-19T05:04:04;95775.81;;;16.06;100.00
7662;BME280;30314;48.184;11.510;2023-09-19T05:06:31;95793.94;;;16.13;100.00
7662;BME280;30314;48.184;11.510;2023-09-19T05:09:00;95762.41;;;15.94;100.00
7662;BME280;30314;48.184;11.510;2023-09-19T05:11:26;95779.69;;;15.88;100.00
7662;BME280;30314;48.184;11.510;2023-09-19T05:13:53;95773.09;;;15.85;100.00
7662;BME280;30314;48.184;11.510;2023-09-19T05:16:20;95805.91;;;16.07;100.00
7662;BME280;30314;48.184;11.510;2023-09-19T05:18:47;95777.66;;;15.85;100.00
7662;BME280;30314;48.184;11.510;2023-09-19T05:21:14;95815.66;;;16.03;100.00
7662;BME280;30314;48.184;11.510;2023-09-19T05:23:41;95809.06;;;16.00;100.00
7662;BME280;30314;48.184;11.510;2023-09-19T05:26:08;95822.78;;;16.11;100.00
7662;BME280;30314;48.184;11.510;2023-09-19T05:28:36;95825.16;;;16.13;100.00
7662;BME280;30314;48.184;11.510;2023-09-19T05:31:04;95819.59;;;15.97;100.00
7662;BME280;30314;48.184;11.510;2023-09-19T05:33:31;95811.28;;;15.98;100.00
7662;BME280;30314;48.184;11.510;2023-09-19T05:35:58;95824.59;;;15.98;100.00
7662;BME280;30314;48.184;11.510;2023-09-19T05:38:26;95822.84;;;16.02;100.00
7662;BME280;30314;48.184;11.510;2023-09-19T05:40:54;95817.81;;;16.01;100.00
7662;BME280;30314;48.184;11.510;2023-09-19T05:43:21;95835.00;;;16.12;100.00
7662;BME280;30314;48.184;11.510;2023-09-19T05:45:48;95840.47;;;16.16;100.00
7662;BME280;30314;48.184;11.510;2023-09-19T05:48:15;95832.53;;;16.07;100.00
7662;BME280;30314;48.184;11.510;2023-09-19T05:50:44;95837.72;;;16.03;100.00
7662;BME280;30314;48.184;11.510;2023-09-19T05:53:13;95843.97;;;16.08;100.00
7662;BME280;30314;48.184;11.510;2023-09-19T05:55:41;95840.84;;;16.05;100.00
7662;BME280;30314;48.184;11.510;2023-09-19T05:58:10;95840.69;;;16.02;100.00
7662;BME280;30314;48.184;11.510;2023-09-19T06:00:40;95826.19;;;15.90;100.00
7662;BME280;30314;48.184;11.510;2023-09-19T06:03:10;95847.72;;;16.06;100.00
7662;BME280;30314;48.184;11.510;2023-09-19T06:05:39;95841.78;;;16.10;100.00
7662;BME280;30314;48.184;11.510;2023-09-19T06:08:07;95867.25;;;16.19;100.00
7662;BME280;30314;48.184;11.510;2023-09-19T06:10:35;95858.94;;;16.21;100.00
7662;BME280;30314;48.184;11.510;2023-09-19T06:13:02;95854.72;;;16.20;100.00
7662;BME280;30314;48.184;11.510;2023-09-19T06:15:31;95829.53;;;16.09;100.00
7662;BME280;30314;48.184;11.510;2023-09-19T06:17:59;95829.88;;;16.07;100.00
7662;BME280;30314;48.184;11.510;2023-09-19T06:20:26;95832.69;;;16.11;100.00
7662;BME280;30314;48.184;11.510;2023-09-19T06:22:53;95836.72;;;16.17;100.00
7662;BME280;30314;48.184;11.510;2023-09-19T06:25:21;95860.41;;;16.40;100.00
7662;BME280;30314;48.184;11.510;2023-09-19T06:27:50;95829.31;;;16.23;100.00
7662;BME280;30314;48.184;11.510;2023-09-19T06:30:21;95858.94;;;16.51;100.00
7662;BME280;30314;48.184;11.510;2023-09-19T06:32:49;95857.09;;;16.43;100.00
7662;BME280;30314;48.184;11.510;2023-09-19T06:35:16;95859.31;;;16.41;100.00
7662;BME280;30314;48.184;11.510;2023-09-19T06:37:43;95866.66;;;16.44;100.00
7662;BME280;30314;48.184;11.510;2023-09-19T06:40:11;95872.13;;;16.47;100.00
7662;BME280;30314;48.184;11.510;2023-09-19T06:42:43;95855.13;;;16.31;100.00
7662;BME280;30314;48.184;11.510;2023-09-19T06:45:12;95870.94;;;16.36;100.00
7662;BME280;30314;48.184;11.510;2023-09-19T06:47:47;95870.28;;;16.39;100.00
7662;BME280;30314;48.184;11.510;2023-09-19T06:50:21;95887.16;;;16.52;100.00
7662;BME280;30314;48.184;11.510;2023-09-19T06:52:50;95867.91;;;16.46;100.00
7662;BME280;30314;48.184;11.510;2023-09-19T06:55:19;95884.59;;;16.56;100.00
7662;BME280;30314;48.184;11.510;2023-09-19T06:57:47;95882.09;;;16.59;100.00
7662;BME280;30314;48.184;11.510;2023-09-19T07:00:15;95890.19;;;16.72;100.00
7662;BME280;30314;48.184;11.510;2023-09-19T07:02:42;95876.59;;;16.86;100.00
7662;BME280;30314;48.184;11.510;2023-09-19T07:05:09;95883.56;;;16.99;100.00
7662;BME280;30314;48.184;11.510;2023-09-19T07:07:36;95878.94;;;16.87;100.00
7662;BME280;30314;48.184;11.510;2023-09-19T07:10:03;95902.31;;;16.90;100.00
7662;BME280;30314;48.184;11.510;2023-09-19T07:12:35;95835.47;;;16.44;100.00
7662;BME280;30314;48.184;11.510;2023-09-19T07:15:01;95871.38;;;16.68;100.00
7662;BME280;30314;48.184;11.510;2023-09-19T07:17:28;95904.56;;;17.01;100.00
7662;BME280;30314;48.184;11.510;2023-09-19T07:19:56;95914.38;;;17.09;100.00
7662;BME280;30314;48.184;11.510;2023-09-19T07:22:26;95902.16;;;17.08;100.00
7662;BME280;30314;48.184;11.510;2023-09-19T07:24:52;95905.13;;;17.28;100.00
7662;BME280;30314;48.184;11.510;2023-09-19T07:27:19;95902.88;;;17.85;100.00
7662;BME280;30314;48.184;11.510;2023-09-19T07:29:45;95903.34;;;18.12;100.00
7662;BME280;30314;48.184;11.510;2023-09-19T07:32:16;95897.34;;;18.02;100.00
7662;BME280;30314;48.184;11.510;2023-09-19T07:34:43;95903.31;;;17.87;100.00
7662;BME280;30314;48.184;11.510;2023-09-19T07:37:11;95907.31;;;17.81;100.00
7662;BME280;30314;48.184;11.510;2023-09-19T07:39:39;95910.19;;;17.75;100.00
7662;BME280;30314;48.184;11.510;2023-09-19T07:42:07;95906.59;;;17.59;100.00
7662;BME280;30314;48.184;11.510;2023-09-19T07:44:37;95906.66;;;17.50;100.00
7662;BME280;30314;48.184;11.510;2023-09-19T07:47:04;95908.91;;;17.60;100.00
7662;BME280;30314;48.184;11.510;2023-09-19T07:49:31;95907.03;;;17.61;100.00
7662;BME280;30314;48.184;11.510;2023-09-19T07:51:58;95907.97;;;17.78;100.00
7662;BME280;30314;48.184;11.510;2023-09-19T07:54:25;95917.56;;;17.91;100.00
7662;BME280;30314;48.184;11.510;2023-09-19T07:56:53;95901.66;;;17.82;100.00
7662;BME280;30314;48.184;11.510;2023-09-19T07:59:20;95896.97;;;17.79;100.00
7662;BME280;30314;48.184;11.510;2023-09-19T08:01:47;95892.34;;;17.67;100.00
7662;BME280;30314;48.184;11.510;2023-09-19T08:04:14;95874.75;;;17.66;100.00
7662;BME280;30314;48.184;11.510;2023-09-19T08:06:41;95878.16;;;17.75;100.00
7662;BME280;30314;48.184;11.510;2023-09-19T08:09:07;95906.31;;;17.85;100.00
7662;BME280;30314;48.184;11.510;2023-09-19T08:11:35;95920.22;;;17.79;100.00
7662;BME280;30314;48.184;11.510;2023-09-19T08:14:02;95888.22;;;17.57;100.00
7662;BME280;30314;48.184;11.510;2023-09-19T08:16:28;95906.66;;;17.84;100.00
7662;BME280;30314;48.184;11.510;2023-09-19T08:18:55;95916.56;;;17.83;100.00
7662;BME280;30314;48.184;11.510;2023-09-19T08:21:22;95916.44;;;17.80;100.00
7662;BME280;30314;48.184;11.510;2023-09-19T08:23:50;95923.72;;;17.92;100.00
7662;BME280;30314;48.184;11.510;2023-09-19T08:26:17;95897.75;;;17.80;100.00
7662;BME280;30314;48.184;11.510;2023-09-19T08:28:44;95922.94;;;18.16;100.00
7662;BME280;30314;48.184;11.510;2023-09-19T08:31:11;95926.97;;;18.22;100.00
7662;BME280;30314;48.184;11.510;2023-09-19T08:33:38;95930.09;;;18.24;100.00
7662;BME280;30314;48.184;11.510;2023-09-19T08:36:06;95929.53;;;18.31;100.00
7662;BME280;30314;48.184;11.510;2023-09-19T08:38:35;95923.19;;;18.23;100.00
7662;BME280;30314;48.184;11.510;2023-09-19T08:41:06;95935.53;;;18.28;100.00
7662;BME280;30314;48.184;11.510;2023-09-19T08:43:36;95923.63;;;18.38;100.00
7662;BME280;30314;48.184;11.510;2023-09-19T08:46:30;95921.16;;;18.45;100.00
7662;BME280;30314;48.184;11.510;2023-09-19T08:49:04;95928.88;;;18.47;100.00
7662;BME280;30314;48.184;11.510;2023-09-19T08:51:42;95927.19;;;18.54;100.00
7662;BME280;30314;48.184;11.510;2023-09-19T08:56:46;95921.72;;;18.76;100.00
7662;BME280;30314;48.184;11.510;2023-09-19T08:59:14;95922.28;;;18.81;100.00
7662;BME280;30314;48.184;11.510;2023-09-19T09:01:42;95922.28;;;18.69;100.00
7662;BME280;30314;48.184;11.510;2023-09-19T09:04:09;95942.78;;;18.65;100.00
7662;BME280;30314;48.184;11.510;2023-09-19T09:06:40;95935.53;;;18.53;100.00
7662;BME280;30314;48.184;11.510;2023-09-19T09:09:11;95940.00;;;18.61;100.00
7662;BME280;30314;48.184;11.510;2023-09-19T09:11:38;95936.22;;;18.75;100.00
7662;BME280;30314;48.184;11.510;2023-09-19T09:14:07;95937.19;;;18.95;100.00
7662;BME280;30314;48.184;11.510;2023-09-19T09:16:34;95926.06;;;18.93;100.00
7662;BME280;30314;48.184;11.510;2023-09-19T09:19:01;95940.16;;;19.06;100.00
7662;BME280;30314;48.184;11.510;2023-09-19T09:21:28;95944.38;;;19.19;100.00
7662;BME280;30314;48.184;11.510;2023-09-19T09:23:55;95936.69;;;19.18;100.00
7662;BME280;30314;48.184;11.510;2023-09-19T09:26:41;95932.66;;;19.24;96.26
7662;BME280;30314;48.184;11.510;2023-09-19T09:29:09;95941.88;;;18.98;98.48
7662;BME280;30314;48.184;11.510;2023-09-19T09:31:36;95940.78;;;18.86;100.00
7662;BME280;30314;48.184;11.510;2023-09-19T09:34:04;95942.56;;;18.82;100.00
7662;BME280;30314;48.184;11.510;2023-09-19T09:36:35;95931.19;;;18.73;100.00
7662;BME280;30314;48.184;11.510;2023-09-19T09:39:03;95933.75;;;18.69;100.00
7662;BME280;30314;48.184;11.510;2023-09-19T09:41:43;95933.41;;;18.71;100.00
7662;BME280;30314;48.184;11.510;2023-09-19T09:44:20;95934.53;;;18.95;100.00
7662;BME280;30314;48.184;11.510;2023-09-19T09:46:48;95933.72;;;18.94;100.00
7662;BME280;30314;48.184;11.510;2023-09-19T09:49:25;95931.34;;;19.18;99.42
7662;BME280;30314;48.184;11.510;2023-09-19T09:52:03;95931.97;;;19.27;100.00
7662;BME280;30314;48.184;11.510;2023-09-19T09:54:38;95933.16;;;19.42;98.76
7662;BME280;30314;48.184;11.510;2023-09-19T09:57:07;95945.47;;;19.59;100.00
7662;BME280;30314;48.184;11.510;2023-09-19T09:59:56;95938.16;;;19.72;92.68
7662;BME280;30314;48.184;11.510;2023-09-19T10:02:41;95940.78;;;19.84;93.25
7662;BME280;30314;48.184;11.510;2023-09-19T10:05:17;95929.22;;;19.80;96.86
7662;BME280;30314;48.184;11.510;2023-09-19T10:07:52;95945.63;;;19.79;91.52
7662;BME280;30314;48.184;11.510;2023-09-19T10:10:39;95944.69;;;19.87;91.19
7662;BME280;30314;48.184;11.510;2023-09-19T10:13:13;95940.44;;;19.86;90.32
7662;BME280;30314;48.184;11.510;2023-09-19T10:15:49;95949.34;;;19.90;89.44
7662;BME280;30314;48.184;11.510;2023-09-19T10:18:20;95956.53;;;19.86;91.94
7662;BME280;30314;48.184;11.510;2023-09-19T10:20:47;95953.16;;;19.89;91.17
7662;BME280;30314;48.184;11.510;2023-09-19T10:23:19;95949.66;;;20.01;87.23
7662;BME280;30314;48.184;11.510;2023-09-19T10:25:51;95948.44;;;20.14;88.49
7662;BME280;30314;48.184;11.510;2023-09-19T10:28:20;95950.66;;;20.12;88.07
7662;BME280;30314;48.184;11.510;2023-09-19T10:30:50;95947.22;;;20.12;88.40
7662;BME280;30314;48.184;11.510;2023-09-19T10:33:19;95951.56;;;20.17;91.76
7662;BME280;30314;48.184;11.510;2023-09-19T10:35:51;95946.53;;;20.15;86.43
7662;BME280;30314;48.184;11.510;2023-09-19T10:38:23;95951.47;;;20.13;93.53
7662;BME280;30314;48.184;11.510;2023-09-19T10:40:52;95943.16;;;20.18;89.56
7662;BME280;30314;48.184;11.510;2023-09-19T10:43:21;95944.47;;;20.24;87.35
7662;BME280;30314;48.184;11.510;2023-09-19T10:45:50;95946.44;;;20.44;78.18
7662;BME280;30314;48.184;11.510;2023-09-19T10:48:20;95946.78;;;20.58;88.44
7662;BME280;30314;48.184;11.510;2023-09-19T10:51:06;95953.06;;;20.82;89.12
7662;BME280;30314;48.184;11.510;2023-09-19T10:56:09;95950.72;;;21.16;86.54
7662;BME280;30314;48.184;11.510;2023-09-19T10:58:44;95943.16;;;21.22;92.77
7662;BME280;30314;48.184;11.510;2023-09-19T11:01:12;95947.81;;;21.25;87.45
7662;BME280;30314;48.184;11.510;2023-09-19T11:03:39;95944.00;;;21.26;87.63
7662;BME280;30314;48.184;11.510;2023-09-19T11:06:14;95944.94;;;21.34;83.35
7662;BME280;30314;48.184;11.510;2023-09-19T11:08:59;95949.69;;;21.40;81.14
7662;BME280;30314;48.184;11.510;2023-09-19T11:11:47;95951.00;;;21.50;82.51
7662;BME280;30314;48.184;11.510;2023-09-19T11:30:52;95938.38;;;21.51;79.08
7662;BME280;30314;48.184;11.510;2023-09-19T11:33:29;95942.53;;;21.48;67.08
7662;BME280;30314;48.184;11.510;2023-09-19T11:43:48;95929.16;;;21.12;70.09
7662;BME280;30314;48.184;11.510;2023-09-19T11:46:21;95936.16;;;21.17;65.22
7662;BME280;30314;48.184;11.510;2023-09-19T11:48:49;95948.66;;;21.09;66.14
7662;BME280;30314;48.184;11.510;2023-09-19T11:51:26;95937.91;;;20.90;66.97
7662;BME280;30314;48.184;11.510;2023-09-19T11:53:55;95953.69;;;20.75;67.73
7662;BME280;30314;48.184;11.510;2023-09-19T11:56:25;95940.88;;;20.52;68.72
7662;BME280;30314;48.184;11.510;2023-09-19T11:58:55;95943.38;;;20.45;74.18
7662;BME280;30314;48.184;11.510;2023-09-19T12:03:54;95944.59;;;20.48;73.10
7662;BME280;30314;48.184;11.510;2023-09-19T12:06:21;95940.66;;;20.41;78.33
7662;BME280;30314;48.184;11.510;2023-09-19T12:08:49;95939.00;;;20.37;73.36
7662;BME280;30314;48.184;11.510;2023-09-19T12:11:17;95927.56;;;20.40;77.59
7662;BME280;30314;48.184;11.510;2023-09-19T12:13:46;95930.88;;;20.49;74.69
7662;BME280;30314;48.184;11.510;2023-09-19T12:16:19;95926.53;;;20.45;79.43
7662;BME280;30314;48.184;11.510;2023-09-19T12:18:50;95934.59;;;20.45;80.43
7662;BME280;30314;48.184;11.510;2023-09-19T12:21:24;95924.94;;;20.60;73.48
7662;BME280;30314;48.184;11.510;2023-09-19T12:23:59;95929.28;;;20.64;78.68
7662;BME280;30314;48.184;11.510;2023-09-19T12:26:28;95921.84;;;20.74;77.15
7662;BME280;30314;48.184;11.510;2023-09-19T12:28:55;95921.91;;;20.77;80.91
7662;BME280;30314;48.184;11.510;2023-09-19T12:31:22;95918.69;;;20.88;79.49
7662;BME280;30314;48.184;11.510;2023-09-19T12:33:55;95914.16;;;20.92;78.17
7662;BME280;30314;48.184;11.510;2023-09-19T12:36:23;95920.31;;;20.92;77.46
7662;BME280;30314;48.184;11.510;2023-09-19T12:38:56;95920.13;;;21.01;75.99
7662;BME280;30314;48.184;11.510;2023-09-19T12:41:26;95928.94;;;21.02;76.97
7662;BME280;30314;48.184;11.510;2023-09-19T12:43:53;95929.56;;;20.95;79.17
7662;BME280;30314;48.184;11.510;2023-09-19T12:46:21;95920.50;;;20.83;79.94
7662;BME280;30314;48.184;11.510;2023-09-19T12:49:16;95924.09;;;20.72;85.06
7662;BME280;30314;48.184;11.510;2023-09-19T12:51:47;95917.88;;;20.51;83.35
7662;BME280;30314;48.184;11.510;2023-09-19T12:54:14;95935.91;;;20.35;83.55
7662;BME280;30314;48.184;11.510;2023-09-19T12:56:45;95928.97;;;20.18;85.50
7662;BME280;30314;48.184;11.510;2023-09-19T12:59:14;95933.63;;;20.05;89.83
7662;BME280;30314;48.184;11.510;2023-09-19T13:01:42;95927.84;;;20.03;90.87
7662;BME280;30314;48.184;11.510;2023-09-19T13:04:18;95924.31;;;19.98;89.20
7662;BME280;30314;48.184;11.510;2023-09-19T13:06:47;95925.00;;;19.95;92.42
7662;BME280;30314;48.184;11.510;2023-09-19T13:09:17;95925.66;;;19.92;89.84
7662;BME280;30314;48.184;11.510;2023-09-19T13:11:44;95924.72;;;19.84;90.35
7662;BME280;30314;48.184;11.510;2023-09-19T13:14:25;95927.16;;;19.90;86.08
7662;BME280;30314;48.184;11.510;2023-09-19T13:17:05;95918.84;;;19.95;87.33
7662;BME280;30314;48.184;11.510;2023-09-19T13:19:47;95909.34;;;19.97;86.29
7662;BME280;30314;48.184;11.510;2023-09-19T13:22:44;95910.19;;;19.85;89.61
7662;BME280;30314;48.184;11.510;2023-09-19T13:25:27;95908.22;;;19.98;88.46
7662;BME280;30314;48.184;11.510;2023-09-19T13:27:57;95903.28;;;20.00;89.23
7662;BME280;30314;48.184;11.510;2023-09-19T13:30:26;95900.28;;;20.02;85.75
7662;BME280;30314;48.184;11.510;2023-09-19T13:33:08;95897.13;;;20.16;88.40
7662;BME280;30314;48.184;11.510;2023-09-19T13:35:38;95899.72;;;20.28;83.36
7662;BME280;30314;48.184;11.510;2023-09-19T13:38:07;95893.09;;;20.22;86.29
7662;BME280;30314;48.184;11.510;2023-09-19T13:40:38;95897.31;;;20.23;89.40
7662;BME280;30314;48.184;11.510;2023-09-19T13:43:06;95892.19;;;20.18;88.03
7662;BME280;30314;48.184;11.510;2023-09-19T13:45:33;95885.28;;;20.17;88.75
7662;BME280;30314;48.184;11.510;2023-09-19T13:48:00;95887.13;;;20.13;87.51
7662;BME280;30314;48.184;11.510;2023-09-19T13:50:28;95885.13;;;20.10;92.07
7662;BME280;30314;48.184;11.510;2023-09-19T13:52:56;95885.91;;;20.10;90.28